sensor_id;sensor_type;location;lat;lon;timestamp;P1;durP1;ratioP1;P2;durP2;ratioP2
54937;SDS011;52756;52.826;6.214;2024-03-23T00:54:08;14.80;;;4.30;;
54937;SDS011;52756;52.826;6.214;2024-03-23T00:56:37;14.35;;;4.32;;
54937;SDS011;52756;52.826;6.214;2024-03-23T00:59:02;16.15;;;3.72;;
54937;SDS011;52756;52.826;6.214;2024-03-23T01:01:28;13.80;;;4.28;;
54937;SDS011;52756;52.826;6.214;2024-03-23T01:03:53;14.32;;;3.75;;
54937;SDS011;52756;52.826;6.214;2024-03-23T01:06:19;16.60;;;4.70;;
54937;SDS011;52756;52.826;6.214;2024-03-23T01:08:45;14.45;;;4.03;;
54937;SDS011;52756;52.826;6.214;2024-03-23T01:11:10;12.57;;;3.80;;
54937;SDS011;52756;52.826;6.214;2024-03-23T01:13:37;15.98;;;4.97;;
54937;SDS011;52756;52.826;6.214;2024-03-23T01:16:02;14.05;;;4.25;;
54937;SDS011;52756;52.826;6.214;2024-03-23T01:18:28;18.15;;;4.22;;
54937;SDS011;52756;52.826;6.214;2024-03-23T01:20:54;18.48;;;4.45;;
54937;SDS011;52756;52.826;6.214;2024-03-23T01:23:21;17.00;;;4.43;;
54937;SDS011;52756;52.826;6.214;2024-03-23T01:25:53;18.10;;;3.60;;
54937;SDS011;52756;52.826;6.214;2024-03-23T01:28:19;13.27;;;3.45;;
54937;SDS011;52756;52.826;6.214;2024-03-23T01:30:45;13.65;;;3.38;;
54937;SDS011;52756;52.826;6.214;2024-03-23T01:33:11;17.23;;;3.85;;
54937;SDS011;52756;52.826;6.214;2024-03-23T01:35:37;16.58;;;3.58;;
54937;SDS011;52756;52.826;6.214;2024-03-23T01:38:03;12.90;;;3.78;;
54937;SDS011;52756;52.826;6.214;2024-03-23T01:40:28;11.00;;;3.25;;
54937;SDS011;52756;52.826;6.214;2024-03-23T01:43:06;16.35;;;3.85;;
54937;SDS011;52756;52.826;6.214;2024-03-23T01:45:33;13.70;;;4.35;;
54937;SDS011;52756;52.826;6.214;2024-03-23T01:47:59;17.60;;;3.95;;
54937;SDS011;52756;52.826;6.214;2024-03-23T01:50:25;18.92;;;4.05;;
54937;SDS011;52756;52.826;6.214;2024-03-23T01:52:52;12.68;;;3.55;;
54937;SDS011;52756;52.826;6.214;2024-03-23T01:55:18;14.80;;;3.80;;
54937;SDS011;52756;52.826;6.214;2024-03-23T01:57:44;11.20;;;3.28;;
54937;SDS011;52756;52.826;6.214;2024-03-23T02:00:10;12.00;;;3.47;;
54937;SDS011;52756;52.826;6.214;2024-03-23T02:02:43;12.60;;;3.47;;
54937;SDS011;52756;52.826;6.214;2024-03-23T02:05:13;11.70;;;3.72;;
54937;SDS011;52756;52.826;6.214;2024-03-23T02:07:39;16.02;;;3.80;;
54937;SDS011;52756;52.826;6.214;2024-03-23T02:10:06;16.60;;;5.60;;
54937;SDS011;52756;52.826;6.214;2024-03-23T02:12:32;10.45;;;3.17;;
54937;SDS011;52756;52.826;6.214;2024-03-23T02:14:59;13.25;;;3.92;;
54937;SDS011;52756;52.826;6.214;2024-03-23T02:17:25;10.93;;;2.88;;
54937;SDS011;52756;52.826;6.214;2024-03-23T02:19:50;12.13;;;3.28;;
54937;SDS011;52756;52.826;6.214;2024-03-23T02:22:16;8.98;;;3.15;;
54937;SDS011;52756;52.826;6.214;2024-03-23T02:24:42;17.13;;;3.97;;
54937;SDS011;52756;52.826;6.214;2024-03-23T02:27:08;13.98;;;4.50;;
54937;SDS011;52756;52.826;6.214;2024-03-23T02:29:33;13.23;;;3.53;;
54937;SDS011;52756;52.826;6.214;2024-03-23T02:31:59;11.45;;;3.13;;
54937;SDS011;52756;52.826;6.214;2024-03-23T02:34:25;14.13;;;4.05;;
54937;SDS011;52756;52.826;6.214;2024-03-23T02:36:50;13.98;;;3.63;;
54937;SDS011;52756;52.826;6.214;2024-03-23T02:39:16;9.63;;;3.70;;
54937;SDS011;52756;52.826;6.214;2024-03-23T02:41:41;16.50;;;3.28;;
54937;SDS011;52756;52.826;6.214;2024-03-23T02:44:07;12.52;;;3.78;;
54937;SDS011;52756;52.826;6.214;2024-03-23T02:46:33;13.98;;;3.20;;
54937;SDS011;52756;52.826;6.214;2024-03-23T02:48:58;11.43;;;3.10;;
54937;SDS011;52756;52.826;6.214;2024-03-23T02:51:25;12.07;;;3.25;;
54937;SDS011;52756;52.826;6.214;2024-03-23T02:53:51;17.30;;;4.07;;
54937;SDS011;52756;52.826;6.214;2024-03-23T02:56:16;12.32;;;3.17;;
54937;SDS011;52756;52.826;6.214;2024-03-23T02:58:42;14.48;;;3.88;;
54937;SDS011;52756;52.826;6.214;2024-03-23T03:01:08;10.77;;;3.08;;
54937;SDS011;52756;52.826;6.214;2024-03-23T03:03:34;14.68;;;3.53;;
54937;SDS011;52756;52.826;6.214;2024-03-23T03:05:59;15.52;;;4.15;;
54937;SDS011;52756;52.826;6.214;2024-03-23T03:08:25;10.77;;;2.92;;
54937;SDS011;52756;52.826;6.214;2024-03-23T03:10:50;14.27;;;3.22;;
54937;SDS011;52756;52.826;6.214;2024-03-23T03:13:16;17.83;;;3.47;;
54937;SDS011;52756;52.826;6.214;2024-03-23T03:15:45;12.55;;;3.10;;
54937;SDS011;52756;52.826;6.214;2024-03-23T03:18:11;13.68;;;3.30;;
54937;SDS011;52756;52.826;6.214;2024-03-23T03:20:39;12.82;;;2.83;;
54937;SDS011;52756;52.826;6.214;2024-03-23T03:23:05;9.43;;;3.15;;
54937;SDS011;52756;52.826;6.214;2024-03-23T03:25:31;12.38;;;3.20;;
54937;SDS011;52756;52.826;6.214;2024-03-23T03:27:57;12.52;;;3.65;;
54937;SDS011;52756;52.826;6.214;2024-03-23T03:30:22;8.25;;;2.95;;
54937;SDS011;52756;52.826;6.214;2024-03-23T03:32:49;9.52;;;2.60;;
54937;SDS011;52756;52.826;6.214;2024-03-23T03:35:16;12.43;;;3.63;;
54937;SDS011;52756;52.826;6.214;2024-03-23T03:37:42;12.80;;;2.55;;
54937;SDS011;52756;52.826;6.214;2024-03-23T03:40:07;12.02;;;3.55;;
54937;SDS011;52756;52.826;6.214;2024-03-23T03:42:34;18.30;;;3.80;;
54937;SDS011;52756;52.826;6.214;2024-03-23T03:45:00;14.35;;;3.20;;
54937;SDS011;52756;52.826;6.214;2024-03-23T03:47:25;14.07;;;3.03;;
54937;SDS011;52756;52.826;6.214;2024-03-23T03:49:51;9.70;;;2.15;;
54937;SDS011;52756;52.826;6.214;2024-03-23T03:52:20;16.60;;;3.20;;
54937;SDS011;52756;52.826;6.214;2024-03-23T03:54:45;10.43;;;2.83;;
54937;SDS011;52756;52.826;6.214;2024-03-23T03:57:11;10.35;;;2.65;;
54937;SDS011;52756;52.826;6.214;2024-03-23T03:59:38;16.33;;;3.25;;
54937;SDS011;52756;52.826;6.214;2024-03-23T04:02:04;9.05;;;3.15;;
54937;SDS011;52756;52.826;6.214;2024-03-23T04:04:30;11.13;;;3.05;;
54937;SDS011;52756;52.826;6.214;2024-03-23T04:07:02;9.40;;;2.65;;
54937;SDS011;52756;52.826;6.214;2024-03-23T04:09:28;9.48;;;1.92;;
54937;SDS011;52756;52.826;6.214;2024-03-23T04:11:55;9.23;;;2.88;;
54937;SDS011;52756;52.826;6.214;2024-03-23T04:14:20;16.02;;;3.35;;
54937;SDS011;52756;52.826;6.214;2024-03-23T04:16:46;10.98;;;2.65;;
54937;SDS011;52756;52.826;6.214;2024-03-23T04:19:12;10.88;;;3.28;;
54937;SDS011;52756;52.826;6.214;2024-03-23T04:21:37;11.20;;;2.90;;
54937;SDS011;52756;52.826;6.214;2024-03-23T04:24:03;17.52;;;4.03;;
54937;SDS011;52756;52.826;6.214;2024-03-23T04:26:30;13.23;;;4.20;;
54937;SDS011;52756;52.826;6.214;2024-03-23T04:28:55;11.23;;;2.75;;
54937;SDS011;52756;52.826;6.214;2024-03-23T04:31:21;8.82;;;2.47;;
54937;SDS011;52756;52.826;6.214;2024-03-23T04:33:47;13.18;;;3.15;;
54937;SDS011;52756;52.826;6.214;2024-03-23T04:36:12;12.30;;;3.35;;
54937;SDS011;52756;52.826;6.214;2024-03-23T04:38:38;9.52;;;2.67;;
54937;SDS011;52756;52.826;6.214;2024-03-23T04:41:03;10.18;;;3.03;;
54937;SDS011;52756;52.826;6.214;2024-03-23T04:43:29;13.52;;;3.00;;
54937;SDS011;52756;52.826;6.214;2024-03-23T04:45:55;10.32;;;2.70;;
54937;SDS011;52756;52.826;6.214;2024-03-23T04:48:21;6.63;;;2.03;;
54937;SDS011;52756;52.826;6.214;2024-03-23T04:50:47;9.18;;;2.45;;
54937;SDS011;52756;52.826;6.214;2024-03-23T04:53:25;10.57;;;2.30;;
54937;SDS011;52756;52.826;6.214;2024-03-23T04:55:56;8.82;;;2.33;;
54937;SDS011;52756;52.826;6.214;2024-03-23T04:58:24;8.68;;;3.17;;
54937;SDS011;52756;52.826;6.214;2024-03-23T05:00:56;11.35;;;2.60;;
54937;SDS011;52756;52.826;6.214;2024-03-23T05:03:22;8.23;;;2.80;;
54937;SDS011;52756;52.826;6.214;2024-03-23T05:05:49;9.63;;;2.58;;
54937;SDS011;52756;52.826;6.214;2024-03-23T05:08:15;9.95;;;2.63;;
54937;SDS011;52756;52.826;6.214;2024-03-23T05:10:41;13.05;;;2.17;;
54937;SDS011;52756;52.826;6.214;2024-03-23T05:13:07;11.57;;;2.55;;
54937;SDS011;52756;52.826;6.214;2024-03-23T05:15:33;10.52;;;2.70;;
54937;SDS011;52756;52.826;6.214;2024-03-23T05:18:00;9.10;;;2.50;;
54937;SDS011;52756;52.826;6.214;2024-03-23T05:20:25;11.25;;;2.97;;
54937;SDS011;52756;52.826;6.214;2024-03-23T05:22:51;8.25;;;2.47;;
54937;SDS011;52756;52.826;6.214;2024-03-23T05:25:16;8.98;;;2.08;;
54937;SDS011;52756;52.826;6.214;2024-03-23T05:27:42;8.55;;;2.08;;
54937;SDS011;52756;52.826;6.214;2024-03-23T05:30:08;14.23;;;3.50;;
54937;SDS011;52756;52.826;6.214;2024-03-23T05:32:34;8.65;;;1.88;;
54937;SDS011;52756;52.826;6.214;2024-03-23T05:35:00;8.90;;;2.15;;
54937;SDS011;52756;52.826;6.214;2024-03-23T05:37:26;11.55;;;2.63;;
54937;SDS011;52756;52.826;6.214;2024-03-23T05:39:51;8.27;;;2.33;;
54937;SDS011;52756;52.826;6.214;2024-03-23T05:42:17;12.23;;;2.85;;
54937;SDS011;52756;52.826;6.214;2024-03-23T05:44:44;10.70;;;2.08;;
54937;SDS011;52756;52.826;6.214;2024-03-23T05:47:10;9.07;;;1.75;;
54937;SDS011;52756;52.826;6.214;2024-03-23T05:49:37;11.63;;;2.15;;
54937;SDS011;52756;52.826;6.214;2024-03-23T05:52:03;14.10;;;2.67;;
54937;SDS011;52756;52.826;6.214;2024-03-23T05:54:29;7.07;;;2.40;;
54937;SDS011;52756;52.826;6.214;2024-03-23T05:56:55;9.90;;;2.40;;
54937;SDS011;52756;52.826;6.214;2024-03-23T05:59:21;15.32;;;3.80;;
54937;SDS011;52756;52.826;6.214;2024-03-23T06:01:47;14.30;;;2.80;;
54937;SDS011;52756;52.826;6.214;2024-03-23T06:04:12;9.90;;;2.47;;
54937;SDS011;52756;52.826;6.214;2024-03-23T06:06:42;9.88;;;2.15;;
54937;SDS011;52756;52.826;6.214;2024-03-23T06:09:07;8.63;;;1.90;;
54937;SDS011;52756;52.826;6.214;2024-03-23T06:11:33;14.13;;;2.38;;
54937;SDS011;52756;52.826;6.214;2024-03-23T06:13:58;9.30;;;2.17;;
54937;SDS011;52756;52.826;6.214;2024-03-23T06:16:24;9.93;;;2.33;;
54937;SDS011;52756;52.826;6.214;2024-03-23T06:18:50;11.60;;;2.22;;
54937;SDS011;52756;52.826;6.214;2024-03-23T06:21:16;11.77;;;2.35;;
54937;SDS011;52756;52.826;6.214;2024-03-23T06:23:42;9.80;;;2.17;;
54937;SDS011;52756;52.826;6.214;2024-03-23T06:26:08;7.00;;;1.63;;
54937;SDS011;52756;52.826;6.214;2024-03-23T06:28:33;6.43;;;2.03;;
54937;SDS011;52756;52.826;6.214;2024-03-23T06:30:59;11.90;;;2.10;;
54937;SDS011;52756;52.826;6.214;2024-03-23T06:33:25;8.45;;;3.13;;
54937;SDS011;52756;52.826;6.214;2024-03-23T06:35:51;11.27;;;2.13;;
54937;SDS011;52756;52.826;6.214;2024-03-23T06:38:17;8.27;;;1.98;;
54937;SDS011;52756;52.826;6.214;2024-03-23T06:40:43;5.95;;;1.80;;
54937;SDS011;52756;52.826;6.214;2024-03-23T06:43:13;12.90;;;2.47;;
54937;SDS011;52756;52.826;6.214;2024-03-23T06:45:38;9.13;;;2.40;;
54937;SDS011;52756;52.826;6.214;2024-03-23T06:48:04;9.98;;;2.08;;
54937;SDS011;52756;52.826;6.214;2024-03-23T06:50:33;9.35;;;2.42;;
54937;SDS011;52756;52.826;6.214;2024-03-23T06:52:58;10.60;;;2.55;;
54937;SDS011;52756;52.826;6.214;2024-03-23T06:55:24;6.43;;;2.17;;
54937;SDS011;52756;52.826;6.214;2024-03-23T06:57:51;9.35;;;2.22;;
54937;SDS011;52756;52.826;6.214;2024-03-23T07:00:17;8.60;;;2.10;;
54937;SDS011;52756;52.826;6.214;2024-03-23T07:02:43;6.63;;;2.38;;
54937;SDS011;52756;52.826;6.214;2024-03-23T07:05:09;10.52;;;2.40;;
54937;SDS011;52756;52.826;6.214;2024-03-23T07:07:36;7.93;;;2.50;;
54937;SDS011;52756;52.826;6.214;2024-03-23T07:10:03;9.63;;;2.42;;
54937;SDS011;52756;52.826;6.214;2024-03-23T07:12:30;9.02;;;2.10;;
54937;SDS011;52756;52.826;6.214;2024-03-23T07:14:56;9.35;;;2.30;;
54937;SDS011;52756;52.826;6.214;2024-03-23T07:17:21;10.43;;;2.38;;
54937;SDS011;52756;52.826;6.214;2024-03-23T07:19:47;9.48;;;2.38;;
54937;SDS011;52756;52.826;6.214;2024-03-23T07:22:13;8.07;;;2.47;;
54937;SDS011;52756;52.826;6.214;2024-03-23T07:24:39;14.05;;;2.70;;
54937;SDS011;52756;52.826;6.214;2024-03-23T07:27:05;10.05;;;2.05;;
54937;SDS011;52756;52.826;6.214;2024-03-23T07:29:35;11.88;;;2.42;;
54937;SDS011;52756;52.826;6.214;2024-03-23T07:32:01;11.13;;;2.00;;
54937;SDS011;52756;52.826;6.214;2024-03-23T07:34:26;5.28;;;1.65;;
54937;SDS011;52756;52.826;6.214;2024-03-23T07:36:52;6.60;;;1.40;;
54937;SDS011;52756;52.826;6.214;2024-03-23T07:39:17;6.97;;;1.60;;
54937;SDS011;52756;52.826;6.214;2024-03-23T07:41:46;7.22;;;2.10;;
54937;SDS011;52756;52.826;6.214;2024-03-23T07:44:12;7.45;;;1.73;;
54937;SDS011;52756;52.826;6.214;2024-03-23T07:46:37;6.93;;;1.75;;
54937;SDS011;52756;52.826;6.214;2024-03-23T07:49:06;5.47;;;1.23;;
54937;SDS011;52756;52.826;6.214;2024-03-23T07:51:32;6.03;;;1.63;;
54937;SDS011;52756;52.826;6.214;2024-03-23T07:53:58;4.57;;;1.35;;
54937;SDS011;52756;52.826;6.214;2024-03-23T07:56:24;2.70;;;1.13;;
54937;SDS011;52756;52.826;6.214;2024-03-23T07:58:50;7.85;;;2.60;;
54937;SDS011;52756;52.826;6.214;2024-03-23T08:01:15;4.93;;;1.05;;
54937;SDS011;52756;52.826;6.214;2024-03-23T08:03:45;3.28;;;1.15;;
54937;SDS011;52756;52.826;6.214;2024-03-23T08:06:12;4.28;;;1.00;;
54937;SDS011;52756;52.826;6.214;2024-03-23T08:08:39;5.80;;;1.65;;
54937;SDS011;52756;52.826;6.214;2024-03-23T08:11:06;4.03;;;0.95;;
54937;SDS011;52756;52.826;6.214;2024-03-23T08:13:32;4.50;;;1.30;;
54937;SDS011;52756;52.826;6.214;2024-03-23T08:15:58;4.72;;;1.10;;
54937;SDS011;52756;52.826;6.214;2024-03-23T08:18:24;8.25;;;1.52;;
54937;SDS011;52756;52.826;6.214;2024-03-23T08:23:25;8.55;;;2.70;;
54937;SDS011;52756;52.826;6.214;2024-03-23T08:25:58;8.05;;;2.10;;
54937;SDS011;52756;52.826;6.214;2024-03-23T08:28:24;6.22;;;1.65;;
54937;SDS011;52756;52.826;6.214;2024-03-23T08:30:50;8.55;;;1.90;;
54937;SDS011;52756;52.826;6.214;2024-03-23T08:33:16;8.35;;;1.98;;
54937;SDS011;52756;52.826;6.214;2024-03-23T08:35:43;9.27;;;1.90;;
54937;SDS011;52756;52.826;6.214;2024-03-23T08:38:17;8.57;;;1.98;;
54937;SDS011;52756;52.826;6.214;2024-03-23T08:40:43;7.90;;;2.33;;
54937;SDS011;52756;52.826;6.214;2024-03-23T08:43:08;8.00;;;2.13;;
54937;SDS011;52756;52.826;6.214;2024-03-23T08:45:34;8.82;;;2.15;;
54937;SDS011;52756;52.826;6.214;2024-03-23T08:48:00;10.52;;;2.83;;
54937;SDS011;52756;52.826;6.214;2024-03-23T08:50:25;12.50;;;2.50;;
54937;SDS011;52756;52.826;6.214;2024-03-23T08:52:51;10.93;;;2.42;;
54937;SDS011;52756;52.826;6.214;2024-03-23T08:55:16;8.05;;;2.50;;
54937;SDS011;52756;52.826;6.214;2024-03-23T08:57:42;6.72;;;1.95;;
54937;SDS011;52756;52.826;6.214;2024-03-23T09:00:07;6.97;;;1.92;;
54937;SDS011;52756;52.826;6.214;2024-03-23T09:02:34;8.32;;;1.70;;
54937;SDS011;52756;52.826;6.214;2024-03-23T09:05:00;8.60;;;2.00;;
54937;SDS011;52756;52.826;6.214;2024-03-23T09:07:32;8.10;;;2.25;;
54937;SDS011;52756;52.826;6.214;2024-03-23T09:09:58;7.43;;;1.65;;
54937;SDS011;52756;52.826;6.214;2024-03-23T09:12:23;9.27;;;2.20;;
54937;SDS011;52756;52.826;6.214;2024-03-23T09:14:50;7.88;;;2.00;;
54937;SDS011;52756;52.826;6.214;2024-03-23T09:17:16;6.47;;;1.55;;
54937;SDS011;52756;52.826;6.214;2024-03-23T09:19:43;8.15;;;2.10;;
54937;SDS011;52756;52.826;6.214;2024-03-23T09:22:08;10.38;;;2.38;;
54937;SDS011;52756;52.826;6.214;2024-03-23T09:24:34;11.70;;;3.10;;
54937;SDS011;52756;52.826;6.214;2024-03-23T09:26:59;8.77;;;2.13;;
54937;SDS011;52756;52.826;6.214;2024-03-23T09:29:25;10.40;;;2.00;;
54937;SDS011;52756;52.826;6.214;2024-03-23T09:31:51;7.60;;;1.95;;
54937;SDS011;52756;52.826;6.214;2024-03-23T09:34:16;9.13;;;2.20;;
54937;SDS011;52756;52.826;6.214;2024-03-23T09:36:42;7.95;;;2.22;;
54937;SDS011;52756;52.826;6.214;2024-03-23T09:39:07;9.50;;;1.75;;
54937;SDS011;52756;52.826;6.214;2024-03-23T09:41:34;9.60;;;1.80;;
54937;SDS011;52756;52.826;6.214;2024-03-23T09:44:00;5.80;;;1.77;;
54937;SDS011;52756;52.826;6.214;2024-03-23T09:46:27;4.20;;;1.02;;
54937;SDS011;52756;52.826;6.214;2024-03-23T09:48:53;8.98;;;1.52;;
54937;SDS011;52756;52.826;6.214;2024-03-23T09:51:20;7.63;;;1.85;;
54937;SDS011;52756;52.826;6.214;2024-03-23T09:53:46;5.40;;;1.27;;
54937;SDS011;52756;52.826;6.214;2024-03-23T09:56:12;4.95;;;1.17;;
54937;SDS011;52756;52.826;6.214;2024-03-23T09:58:38;4.50;;;1.40;;
54937;SDS011;52756;52.826;6.214;2024-03-23T10:01:04;5.18;;;1.10;;
54937;SDS011;52756;52.826;6.214;2024-03-23T10:03:30;5.43;;;1.23;;
54937;SDS011;52756;52.826;6.214;2024-03-23T10:06:02;5.68;;;1.52;;
54937;SDS011;52756;52.826;6.214;2024-03-23T10:08:29;4.60;;;1.25;;
54937;SDS011;52756;52.826;6.214;2024-03-23T10:10:56;5.18;;;1.20;;
54937;SDS011;52756;52.826;6.214;2024-03-23T10:13:27;4.70;;;1.08;;
54937;SDS011;52756;52.826;6.214;2024-03-23T10:15:56;4.40;;;1.33;;
54937;SDS011;52756;52.826;6.214;2024-03-23T10:18:28;6.57;;;2.47;;
54937;SDS011;52756;52.826;6.214;2024-03-23T10:23:34;5.90;;;1.75;;
54937;SDS011;52756;52.826;6.214;2024-03-23T10:26:13;7.75;;;1.60;;
54937;SDS011;52756;52.826;6.214;2024-03-23T10:31:30;9.02;;;2.20;;
54937;SDS011;52756;52.826;6.214;2024-03-23T10:33:56;11.35;;;2.63;;
54937;SDS011;52756;52.826;6.214;2024-03-23T10:36:22;10.30;;;2.20;;
54937;SDS011;52756;52.826;6.214;2024-03-23T10:38:51;9.90;;;2.25;;
54937;SDS011;52756;52.826;6.214;2024-03-23T10:41:17;10.52;;;2.15;;
54937;SDS011;52756;52.826;6.214;2024-03-23T10:43:47;8.68;;;2.28;;
54937;SDS011;52756;52.826;6.214;2024-03-23T10:46:13;7.85;;;2.00;;
54937;SDS011;52756;52.826;6.214;2024-03-23T10:48:40;9.18;;;1.60;;
54937;SDS011;52756;52.826;6.214;2024-03-23T10:51:06;4.32;;;1.27;;
54937;SDS011;52756;52.826;6.214;2024-03-23T10:53:33;4.82;;;1.58;;
54937;SDS011;52756;52.826;6.214;2024-03-23T10:55:59;6.88;;;2.03;;
54937;SDS011;52756;52.826;6.214;2024-03-23T10:58:58;7.55;;;2.40;;
54937;SDS011;52756;52.826;6.214;2024-03-23T11:01:18;7.80;;;1.58;;
54937;SDS011;52756;52.826;6.214;2024-03-23T11:03:45;7.82;;;2.67;;
54937;SDS011;52756;52.826;6.214;2024-03-23T11:06:12;6.38;;;1.50;;
54937;SDS011;52756;52.826;6.214;2024-03-23T11:12:17;8.60;;;2.08;;
54937;SDS011;52756;52.826;6.214;2024-03-23T11:14:46;7.22;;;1.70;;
54937;SDS011;52756;52.826;6.214;2024-03-23T11:17:19;6.57;;;1.73;;
54937;SDS011;52756;52.826;6.214;2024-03-23T11:22:41;6.63;;;1.58;;
54937;SDS011;52756;52.826;6.214;2024-03-23T11:25:12;4.32;;;1.30;;
54937;SDS011;52756;52.826;6.214;2024-03-23T11:27:41;6.40;;;1.33;;
54937;SDS011;52756;52.826;6.214;2024-03-23T11:30:26;5.30;;;1.65;;
54937;SDS011;52756;52.826;6.214;2024-03-23T11:32:56;5.05;;;1.02;;
54937;SDS011;52756;52.826;6.214;2024-03-23T11:35:28;9.13;;;1.60;;
54937;SDS011;52756;52.826;6.214;2024-03-23T11:38:04;8.32;;;2.40;;
54937;SDS011;52756;52.826;6.214;2024-03-23T11:40:30;10.50;;;1.70;;
54937;SDS011;52756;52.826;6.214;2024-03-23T11:43:13;7.55;;;1.77;;
54937;SDS011;52756;52.826;6.214;2024-03-23T11:45:42;6.57;;;1.95;;
54937;SDS011;52756;52.826;6.214;2024-03-23T11:48:09;8.07;;;1.58;;
54937;SDS011;52756;52.826;6.214;2024-03-23T11:50:43;10.18;;;2.45;;
54937;SDS011;52756;52.826;6.214;2024-03-23T11:55:42;7.97;;;2.28;;
54937;SDS011;52756;52.826;6.214;2024-03-23T11:58:09;9.32;;;2.13;;
54937;SDS011;52756;52.826;6.214;2024-03-23T12:00:36;15.52;;;2.80;;
54937;SDS011;52756;52.826;6.214;2024-03-23T12:03:02;10.35;;;3.00;;
54937;SDS011;52756;52.826;6.214;2024-03-23T12:05:29;6.28;;;1.83;;
54937;SDS011;52756;52.826;6.214;2024-03-23T12:07:55;7.70;;;1.60;;
54937;SDS011;52756;52.826;6.214;2024-03-23T12:10:40;8.27;;;1.90;;
54937;SDS011;52756;52.826;6.214;2024-03-23T12:13:05;5.40;;;1.40;;
54937;SDS011;52756;52.826;6.214;2024-03-23T12:15:31;10.02;;;1.70;;
54937;SDS011;52756;52.826;6.214;2024-03-23T12:18:08;8.13;;;2.08;;
54937;SDS011;52756;52.826;6.214;2024-03-23T12:20:34;6.65;;;1.63;;
54937;SDS011;52756;52.826;6.214;2024-03-23T12:23:09;7.25;;;2.03;;
54937;SDS011;52756;52.826;6.214;2024-03-23T12:25:37;10.65;;;2.25;;
54937;SDS011;52756;52.826;6.214;2024-03-23T12:28:04;12.75;;;2.30;;
54937;SDS011;52756;52.826;6.214;2024-03-23T12:30:32;12.07;;;3.08;;
54937;SDS011;52756;52.826;6.214;2024-03-23T12:33:04;7.97;;;2.33;;
54937;SDS011;52756;52.826;6.214;2024-03-23T12:35:30;7.18;;;2.00;;
54937;SDS011;52756;52.826;6.214;2024-03-23T12:37:56;10.95;;;2.33;;
54937;SDS011;52756;52.826;6.214;2024-03-23T12:40:22;10.63;;;2.28;;
54937;SDS011;52756;52.826;6.214;2024-03-23T12:42:48;10.20;;;2.17;;
54937;SDS011;52756;52.826;6.214;2024-03-23T12:45:14;9.05;;;2.45;;
54937;SDS011;52756;52.826;6.214;2024-03-23T12:47:39;8.52;;;2.55;;
54937;SDS011;52756;52.826;6.214;2024-03-23T12:50:05;10.68;;;2.53;;
54937;SDS011;52756;52.826;6.214;2024-03-23T12:52:32;8.57;;;2.65;;
54937;SDS011;52756;52.826;6.214;2024-03-23T12:54:58;8.98;;;1.83;;
54937;SDS011;52756;52.826;6.214;2024-03-23T12:57:24;9.13;;;1.98;;
54937;SDS011;52756;52.826;6.214;2024-03-23T12:59:50;10.43;;;1.85;;
54937;SDS011;52756;52.826;6.214;2024-03-23T13:02:22;7.18;;;2.03;;
54937;SDS011;52756;52.826;6.214;2024-03-23T13:04:51;7.88;;;2.25;;
54937;SDS011;52756;52.826;6.214;2024-03-23T13:07:20;11.80;;;2.42;;
54937;SDS011;52756;52.826;6.214;2024-03-23T13:09:51;9.40;;;2.35;;
54937;SDS011;52756;52.826;6.214;2024-03-23T13:12:18;5.85;;;1.58;;
54937;SDS011;52756;52.826;6.214;2024-03-23T13:14:45;7.25;;;1.70;;
54937;SDS011;52756;52.826;6.214;2024-03-23T13:17:12;6.13;;;1.80;;
54937;SDS011;52756;52.826;6.214;2024-03-23T13:19:38;9.30;;;1.48;;
54937;SDS011;52756;52.826;6.214;2024-03-23T13:22:04;6.15;;;1.67;;
54937;SDS011;52756;52.826;6.214;2024-03-23T13:24:30;6.80;;;1.50;;
54937;SDS011;52756;52.826;6.214;2024-03-23T13:26:55;10.20;;;2.03;;
54937;SDS011;52756;52.826;6.214;2024-03-23T13:29:21;7.93;;;1.85;;
54937;SDS011;52756;52.826;6.214;2024-03-23T13:31:48;8.25;;;2.10;;
54937;SDS011;52756;52.826;6.214;2024-03-23T13:34:14;9.00;;;2.53;;
54937;SDS011;52756;52.826;6.214;2024-03-23T13:36:46;7.18;;;2.17;;
54937;SDS011;52756;52.826;6.214;2024-03-23T13:39:14;7.03;;;2.00;;
54937;SDS011;52756;52.826;6.214;2024-03-23T13:41:41;12.77;;;2.80;;
54937;SDS011;52756;52.826;6.214;2024-03-23T13:44:09;9.50;;;1.95;;
54937;SDS011;52756;52.826;6.214;2024-03-23T13:46:36;9.90;;;2.30;;
54937;SDS011;52756;52.826;6.214;2024-03-23T13:49:05;8.88;;;2.15;;
54937;SDS011;52756;52.826;6.214;2024-03-23T13:51:32;8.57;;;2.10;;
54937;SDS011;52756;52.826;6.214;2024-03-23T13:53:57;9.75;;;2.90;;
54937;SDS011;52756;52.826;6.214;2024-03-23T13:56:29;10.63;;;2.95;;
54937;SDS011;52756;52.826;6.214;2024-03-23T13:58:55;9.32;;;2.15;;
54937;SDS011;52756;52.826;6.214;2024-03-23T14:01:21;13.25;;;2.72;;
54937;SDS011;52756;52.826;6.214;2024-03-23T14:03:47;6.13;;;2.05;;
54937;SDS011;52756;52.826;6.214;2024-03-23T14:06:12;10.55;;;2.47;;
54937;SDS011;52756;52.826;6.214;2024-03-23T14:08:38;7.43;;;2.38;;
54937;SDS011;52756;52.826;6.214;2024-03-23T14:11:10;8.68;;;2.25;;
54937;SDS011;52756;52.826;6.214;2024-03-23T14:13:36;7.07;;;1.88;;
54937;SDS011;52756;52.826;6.214;2024-03-23T14:16:02;9.45;;;1.70;;
54937;SDS011;52756;52.826;6.214;2024-03-23T14:18:28;4.22;;;1.33;;
54937;SDS011;52756;52.826;6.214;2024-03-23T14:20:58;6.85;;;1.27;;
54937;SDS011;52756;52.826;6.214;2024-03-23T14:23:28;7.07;;;1.10;;
54937;SDS011;52756;52.826;6.214;2024-03-23T14:25:55;5.25;;;1.15;;
54937;SDS011;52756;52.826;6.214;2024-03-23T14:28:21;6.50;;;1.63;;
54937;SDS011;52756;52.826;6.214;2024-03-23T14:30:50;5.72;;;1.30;;
54937;SDS011;52756;52.826;6.214;2024-03-23T14:33:16;4.70;;;1.33;;
54937;SDS011;52756;52.826;6.214;2024-03-23T14:35:43;5.57;;;1.60;;
54937;SDS011;52756;52.826;6.214;2024-03-23T14:38:09;10.27;;;1.70;;
54937;SDS011;52756;52.826;6.214;2024-03-23T14:40:35;7.25;;;1.85;;
54937;SDS011;52756;52.826;6.214;2024-03-23T14:43:00;8.23;;;2.60;;
54937;SDS011;52756;52.826;6.214;2024-03-23T14:45:27;8.07;;;1.95;;
54937;SDS011;52756;52.826;6.214;2024-03-23T14:47:54;10.13;;;2.10;;
54937;SDS011;52756;52.826;6.214;2024-03-23T14:50:20;11.00;;;2.42;;
54937;SDS011;52756;52.826;6.214;2024-03-23T14:52:46;11.20;;;1.90;;
54937;SDS011;52756;52.826;6.214;2024-03-23T14:55:12;11.38;;;2.20;;
54937;SDS011;52756;52.826;6.214;2024-03-23T14:57:38;8.30;;;1.50;;
54937;SDS011;52756;52.826;6.214;2024-03-23T15:00:07;8.00;;;1.80;;
54937;SDS011;52756;52.826;6.214;2024-03-23T15:02:35;7.50;;;1.83;;
54937;SDS011;52756;52.826;6.214;2024-03-23T15:05:04;11.68;;;1.98;;
54937;SDS011;52756;52.826;6.214;2024-03-23T15:07:34;8.23;;;2.47;;
54937;SDS011;52756;52.826;6.214;2024-03-23T15:10:01;6.90;;;1.50;;
54937;SDS011;52756;52.826;6.214;2024-03-23T15:12:27;11.88;;;2.72;;
54937;SDS011;52756;52.826;6.214;2024-03-23T15:14:52;15.50;;;2.90;;
54937;SDS011;52756;52.826;6.214;2024-03-23T15:17:18;9.35;;;2.47;;
54937;SDS011;52756;52.826;6.214;2024-03-23T15:19:43;7.40;;;1.45;;
54937;SDS011;52756;52.826;6.214;2024-03-23T15:22:09;11.25;;;2.15;;
54937;SDS011;52756;52.826;6.214;2024-03-23T15:24:35;7.18;;;1.70;;
54937;SDS011;52756;52.826;6.214;2024-03-23T15:27:03;4.90;;;1.15;;
54937;SDS011;52756;52.826;6.214;2024-03-23T15:29:28;5.40;;;1.13;;
54937;SDS011;52756;52.826;6.214;2024-03-23T15:31:54;3.13;;;0.80;;
54937;SDS011;52756;52.826;6.214;2024-03-23T15:34:20;5.20;;;1.25;;
54937;SDS011;52756;52.826;6.214;2024-03-23T15:36:49;4.30;;;1.13;;
54937;SDS011;52756;52.826;6.214;2024-03-23T15:39:18;6.55;;;1.35;;
54937;SDS011;52756;52.826;6.214;2024-03-23T15:41:44;4.03;;;1.10;;
54937;SDS011;52756;52.826;6.214;2024-03-23T15:44:10;3.97;;;0.80;;
54937;SDS011;52756;52.826;6.214;2024-03-23T15:46:36;5.88;;;1.70;;
54937;SDS011;52756;52.826;6.214;2024-03-23T15:49:02;8.57;;;1.75;;
54937;SDS011;52756;52.826;6.214;2024-03-23T15:51:27;9.15;;;1.50;;